Reklama

Seznam meteostanic a jejich METAR

Vyhledat místa podle abecedy:
A B C D E F G H I J K L M N O P Q R S T U V W X Y Z

Filtrovat:

ID stanice:
a/nebo
Název místa (fulltext):
 
Místo (ID)Naposledy načteno 
Temelín (Temelin) 06.12.2019 00:00 UTC Zobrazit data
Místo: Temelín
Teplota: -2 °C (pocitová: -6.7 °C)
Vítr: 1 m/s z(e) 170°
Počasí: zataženo
Dohlednost: 2400 m
Zákl. oblačnosti: 8/8 60 m
Vlhkost: 93%
Tahiti (NTAA) 06.12.2019 00:00 UTC Zobrazit METAR
NTAA 060000Z VRB03KT 9999 SCT016 OVC043 28/23 Q1013 TEMPO 33015G25KT 1500 SHRA FEW014CB BKN017
Taipei (RCTP) 06.12.2019 00:00 UTC Zobrazit METAR
RCTP 060000Z 04023KT 4000 RA SCT003 BKN010 BKN020 15/14 Q1025 WS ALL RWY NOSIG RMK A3028 RA AMT 3.8MM
Taipei (RCSS) 06.12.2019 00:00 UTC Zobrazit METAR
RCSS 060000Z VRB01KT 8000 -RA FEW006 BKN020 BKN045 16/14 Q1025 NOSIG RMK A3028 RA AMT 1.2MM
Tallinn (EETN) 05.12.2019 21:50 UTC Zobrazit METAR
EETN 052150Z 24018KT 9999 BKN021 OVC034 06/03 Q0996 R08/19//95 TEMPO 24020G30KT BKN012
Tampere (EFTP) 05.12.2019 23:50 UTC Zobrazit METAR
EFTP 052350Z AUTO 23009KT 9999 -RA OVC012 04/03 Q0987
Tarawa I (NGTA) 06.12.2019 00:00 UTC Zobrazit METAR
NGTA 060000Z 04006KT 9999 -RA SCT018 OVC090 26/24 Q1008
Targu Mures (LRTM) 06.12.2019 00:00 UTC Zobrazit METAR
LRTM 060000Z AUTO 08004KT 4800 BR FEW002/// M07/M09 Q1028
Tartu (EETU) 05.12.2019 23:50 UTC Zobrazit METAR
EETU 052350Z 23015KT 9999 -RA SCT024 OVC035 06/03 Q0999
Tashkent (UTTT) 05.12.2019 08:00 UTC Zobrazit METAR
UTTT 050800Z 16004KT 4000 FU NSC 17/M00 Q1021 R08R/CLRD70 NOSIG
Tbilisi (UGGG) Zatím nenačteno  
Tegucigalpa (MHTG) 06.12.2019 00:00 UTC Zobrazit METAR
MHTG 060000Z 36007KT 9999 FEW030 21/14 Q1019 A3009 NOSIG
Tehran (OIII) 06.12.2019 00:00 UTC Zobrazit METAR
OIII 060000Z 00000KT 6000 FEW100 06/01 Q1024 A3024 NOSIG
Tel Aviv (LLBG) 05.12.2019 23:50 UTC Zobrazit METAR
LLBG 052350Z 26007KT 9999 FEW030 SCT050 19/12 Q1017 NOSIG
Tenerife (GCTS) 06.12.2019 00:00 UTC Zobrazit METAR
GCTS 060000Z 32009KT 9999 SCT090 19/10 Q1015 NOSIG
Thessaloniki (LGTS) 05.12.2019 23:50 UTC Zobrazit METAR
LGTS 052350Z VRB03KT 9999 FEW020 BKN045 06/04 Q1031 NOSIG
Thule (BGTL) 05.12.2019 23:53 UTC Zobrazit METAR
BGTL 052353Z AUTO 14013KT 9999 CLR M14/M17 A2958 RMK AO2 WSHFT 45 SLP006 TSNO $
Timisoara (LRTR) 05.12.2019 23:00 UTC Zobrazit METAR
LRTR 052300Z 12005KT 5000 BR NSC M05/M05 Q1027 NOSIG
Tirana (LATI) 05.12.2019 23:50 UTC Zobrazit METAR
LATI 052350Z VRB02KT 9999 OVC053 09/07 Q1026 NOSIG
Tokyo (RJTT) 06.12.2019 00:00 UTC Zobrazit METAR
RJTT 060000Z 02009KT 9999 FEW030 BKN060 08/01 Q1025 NOSIG
Torp (ENTO) 05.12.2019 23:50 UTC Zobrazit METAR
ENTO 052350Z AUTO 22011KT 9999 SCT055/// OVC070/// 06/04 Q0986
Toulouse (LFBO) 05.12.2019 23:00 UTC Zobrazit METAR
LFBO 052300Z AUTO 18003KT 5000 BR NSC 06/05 Q1024
Tripoli (HLLT) 13.07.2014 03:50 UTC Zobrazit METAR
HLLT 130350Z 11009KT CAVOK 24/15 Q1015
Trondheim (ENVA) 05.12.2019 23:50 UTC Zobrazit METAR
ENVA 052350Z 10006KT 9999 SCT043 BKN055 02/00 Q0980 RMK WIND 670FT 20013KT
Tunis (DTTA) 06.12.2019 00:00 UTC Zobrazit METAR
DTTA 060000Z 19002KT 7000 FEW040 12/12 Q1022
Turku (EFTU) 05.12.2019 23:50 UTC Zobrazit METAR
EFTU 052350Z AUTO 24013KT 9999 BKN021 06/03 Q0990
Reklama

Počasí na Váš email

Emaily jsou bez reklamy a bez spamu



Odhlásit newsletter

Reklama


Lunární kalendář

  • 12.12.
  • 19.12.
  • 26.12.
  • 03.01.



Reklama


Reklama
Povinné ručení
Reklama



Reklama